sensor_id;sensor_type;location;lat;lon;timestamp;temperature;humidity
20590;DHT22;10453;50.810;12.540;2023-06-22T00:02:34;17.10;99.90
20590;DHT22;10453;50.810;12.540;2023-06-22T00:06:51;17.00;99.90
20590;DHT22;10453;50.810;12.540;2023-06-22T00:11:09;17.10;99.90
20590;DHT22;10453;50.810;12.540;2023-06-22T00:15:26;17.00;99.90
20590;DHT22;10453;50.810;12.540;2023-06-22T00:19:43;17.10;99.90
20590;DHT22;10453;50.810;12.540;2023-06-22T00:24:04;17.00;99.90
20590;DHT22;10453;50.810;12.540;2023-06-22T00:28:22;16.90;99.90
20590;DHT22;10453;50.810;12.540;2023-06-22T00:32:39;16.80;99.90
20590;DHT22;10453;50.810;12.540;2023-06-22T00:36:56;16.80;99.90
20590;DHT22;10453;50.810;12.540;2023-06-22T00:41:13;16.80;99.90
20590;DHT22;10453;50.810;12.540;2023-06-22T00:45:31;16.80;99.90
20590;DHT22;10453;50.810;12.540;2023-06-22T00:49:49;16.70;99.90
20590;DHT22;10453;50.810;12.540;2023-06-22T00:54:10;16.50;99.90
20590;DHT22;10453;50.810;12.540;2023-06-22T00:58:28;16.60;99.90
20590;DHT22;10453;50.810;12.540;2023-06-22T01:02:46;16.50;99.90
20590;DHT22;10453;50.810;12.540;2023-06-22T01:11:40;16.50;99.90
20590;DHT22;10453;50.810;12.540;2023-06-22T01:16:30;16.30;99.90
20590;DHT22;10453;50.810;12.540;2023-06-22T01:20:48;16.20;99.90
20590;DHT22;10453;50.810;12.540;2023-06-22T01:25:13;16.30;99.90
20590;DHT22;10453;50.810;12.540;2023-06-22T01:29:33;16.30;99.90
20590;DHT22;10453;50.810;12.540;2023-06-22T01:33:59;16.30;99.90
20590;DHT22;10453;50.810;12.540;2023-06-22T01:38:17;16.30;99.90
20590;DHT22;10453;50.810;12.540;2023-06-22T01:42:36;16.30;99.90
20590;DHT22;10453;50.810;12.540;2023-06-22T01:46:54;16.40;99.90
20590;DHT22;10453;50.810;12.540;2023-06-22T01:51:12;16.30;99.90
20590;DHT22;10453;50.810;12.540;2023-06-22T01:55:29;16.10;99.90
20590;DHT22;10453;50.810;12.540;2023-06-22T02:00:00;16.10;99.90
20590;DHT22;10453;50.810;12.540;2023-06-22T02:04:26;16.00;99.90
20590;DHT22;10453;50.810;12.540;2023-06-22T02:08:51;16.10;99.90
20590;DHT22;10453;50.810;12.540;2023-06-22T02:13:11;16.20;99.90
20590;DHT22;10453;50.810;12.540;2023-06-22T02:17:29;16.00;99.90
20590;DHT22;10453;50.810;12.540;2023-06-22T02:21:50;15.90;99.90
20590;DHT22;10453;50.810;12.540;2023-06-22T02:26:07;16.00;99.90
20590;DHT22;10453;50.810;12.540;2023-06-22T02:30:25;16.00;99.90
20590;DHT22;10453;50.810;12.540;2023-06-22T02:34:43;15.90;99.90
20590;DHT22;10453;50.810;12.540;2023-06-22T02:39:04;16.00;99.90
20590;DHT22;10453;50.810;12.540;2023-06-22T02:43:21;15.90;99.90
20590;DHT22;10453;50.810;12.540;2023-06-22T02:47:39;15.70;99.90
20590;DHT22;10453;50.810;12.540;2023-06-22T02:51:57;15.80;99.90
20590;DHT22;10453;50.810;12.540;2023-06-22T02:56:14;15.80;99.90
20590;DHT22;10453;50.810;12.540;2023-06-22T03:00:32;15.80;99.90
20590;DHT22;10453;50.810;12.540;2023-06-22T03:04:50;15.60;99.90
20590;DHT22;10453;50.810;12.540;2023-06-22T03:09:10;15.60;99.90
20590;DHT22;10453;50.810;12.540;2023-06-22T03:13:28;15.60;99.90
20590;DHT22;10453;50.810;12.540;2023-06-22T03:17:46;15.60;99.90
20590;DHT22;10453;50.810;12.540;2023-06-22T03:22:04;15.70;99.90
20590;DHT22;10453;50.810;12.540;2023-06-22T03:26:21;15.60;99.90
20590;DHT22;10453;50.810;12.540;2023-06-22T03:30:40;15.60;99.90
20590;DHT22;10453;50.810;12.540;2023-06-22T03:34:58;15.70;99.90
20590;DHT22;10453;50.810;12.540;2023-06-22T03:39:15;15.80;99.90
20590;DHT22;10453;50.810;12.540;2023-06-22T03:43:33;15.80;99.90
20590;DHT22;10453;50.810;12.540;2023-06-22T03:47:50;15.80;99.90
20590;DHT22;10453;50.810;12.540;2023-06-22T03:52:08;15.90;99.90
20590;DHT22;10453;50.810;12.540;2023-06-22T03:56:25;15.90;99.90
20590;DHT22;10453;50.810;12.540;2023-06-22T04:00:42;15.90;99.90
20590;DHT22;10453;50.810;12.540;2023-06-22T04:04:59;16.00;99.90
20590;DHT22;10453;50.810;12.540;2023-06-22T04:09:20;16.30;99.90
20590;DHT22;10453;50.810;12.540;2023-06-22T04:13:38;16.50;99.90
20590;DHT22;10453;50.810;12.540;2023-06-22T04:17:56;16.80;99.90
20590;DHT22;10453;50.810;12.540;2023-06-22T04:22:14;17.10;99.90
20590;DHT22;10453;50.810;12.540;2023-06-22T04:26:31;17.40;99.90
20590;DHT22;10453;50.810;12.540;2023-06-22T04:30:53;17.50;99.90
20590;DHT22;10453;50.810;12.540;2023-06-22T04:35:15;17.80;99.90
20590;DHT22;10453;50.810;12.540;2023-06-22T04:39:33;18.00;99.90
20590;DHT22;10453;50.810;12.540;2023-06-22T04:43:50;18.10;99.90
20590;DHT22;10453;50.810;12.540;2023-06-22T04:48:11;18.10;99.90
20590;DHT22;10453;50.810;12.540;2023-06-22T04:52:33;18.30;99.90
20590;DHT22;10453;50.810;12.540;2023-06-22T04:56:50;18.50;99.90
20590;DHT22;10453;50.810;12.540;2023-06-22T05:01:13;18.80;99.90
20590;DHT22;10453;50.810;12.540;2023-06-22T05:05:30;18.90;99.90
20590;DHT22;10453;50.810;12.540;2023-06-22T05:09:48;19.20;99.90
20590;DHT22;10453;50.810;12.540;2023-06-22T05:14:05;19.30;99.90
20590;DHT22;10453;50.810;12.540;2023-06-22T05:18:23;19.40;99.90
20590;DHT22;10453;50.810;12.540;2023-06-22T05:22:41;19.60;99.90
20590;DHT22;10453;50.810;12.540;2023-06-22T05:27:00;19.60;99.90
20590;DHT22;10453;50.810;12.540;2023-06-22T05:31:18;19.70;99.90
20590;DHT22;10453;50.810;12.540;2023-06-22T05:35:37;19.90;99.90
20590;DHT22;10453;50.810;12.540;2023-06-22T05:39:54;20.00;99.90
20590;DHT22;10453;50.810;12.540;2023-06-22T05:44:12;20.10;99.90
20590;DHT22;10453;50.810;12.540;2023-06-22T05:48:30;20.40;99.90
20590;DHT22;10453;50.810;12.540;2023-06-22T05:52:48;20.90;99.90
20590;DHT22;10453;50.810;12.540;2023-06-22T05:57:06;21.30;99.90
20590;DHT22;10453;50.810;12.540;2023-06-22T06:01:23;21.40;99.90
20590;DHT22;10453;50.810;12.540;2023-06-22T06:05:43;21.50;99.90
20590;DHT22;10453;50.810;12.540;2023-06-22T06:10:01;21.60;99.90
20590;DHT22;10453;50.810;12.540;2023-06-22T06:14:19;21.40;99.90
20590;DHT22;10453;50.810;12.540;2023-06-22T06:18:37;21.30;99.90
20590;DHT22;10453;50.810;12.540;2023-06-22T06:22:55;21.10;99.90
20590;DHT22;10453;50.810;12.540;2023-06-22T06:27:13;21.10;99.90
20590;DHT22;10453;50.810;12.540;2023-06-22T06:31:31;21.00;99.90
20590;DHT22;10453;50.810;12.540;2023-06-22T06:35:48;20.90;99.90
20590;DHT22;10453;50.810;12.540;2023-06-22T06:40:06;21.00;99.90
20590;DHT22;10453;50.810;12.540;2023-06-22T06:44:27;21.10;99.90
20590;DHT22;10453;50.810;12.540;2023-06-22T06:48:44;21.20;99.90
20590;DHT22;10453;50.810;12.540;2023-06-22T06:53:02;21.30;99.90
20590;DHT22;10453;50.810;12.540;2023-06-22T06:57:19;21.50;99.90
20590;DHT22;10453;50.810;12.540;2023-06-22T07:01:37;21.80;99.90
20590;DHT22;10453;50.810;12.540;2023-06-22T07:05:54;22.00;99.90
20590;DHT22;10453;50.810;12.540;2023-06-22T07:10:12;22.20;99.90
20590;DHT22;10453;50.810;12.540;2023-06-22T07:14:29;22.30;99.90
20590;DHT22;10453;50.810;12.540;2023-06-22T07:18:48;22.50;99.90
20590;DHT22;10453;50.810;12.540;2023-06-22T07:23:05;23.00;99.90
20590;DHT22;10453;50.810;12.540;2023-06-22T07:27:23;23.10;99.90
20590;DHT22;10453;50.810;12.540;2023-06-22T07:31:40;23.10;99.90
20590;DHT22;10453;50.810;12.540;2023-06-22T07:35:58;23.20;99.90
20590;DHT22;10453;50.810;12.540;2023-06-22T07:40:15;23.60;99.90
20590;DHT22;10453;50.810;12.540;2023-06-22T07:44:33;23.70;99.90
20590;DHT22;10453;50.810;12.540;2023-06-22T07:48:52;24.20;99.90
20590;DHT22;10453;50.810;12.540;2023-06-22T07:53:12;24.50;99.90
20590;DHT22;10453;50.810;12.540;2023-06-22T07:57:30;26.00;99.90
20590;DHT22;10453;50.810;12.540;2023-06-22T08:01:51;27.10;99.90
20590;DHT22;10453;50.810;12.540;2023-06-22T08:06:09;27.70;99.90
20590;DHT22;10453;50.810;12.540;2023-06-22T08:10:27;28.10;99.90
20590;DHT22;10453;50.810;12.540;2023-06-22T08:14:44;28.80;99.90
20590;DHT22;10453;50.810;12.540;2023-06-22T08:19:03;29.10;99.90
20590;DHT22;10453;50.810;12.540;2023-06-22T08:23:20;29.10;99.90
20590;DHT22;10453;50.810;12.540;2023-06-22T08:27:38;29.60;99.90
20590;DHT22;10453;50.810;12.540;2023-06-22T08:31:55;29.80;99.90
20590;DHT22;10453;50.810;12.540;2023-06-22T08:36:13;29.70;99.90
20590;DHT22;10453;50.810;12.540;2023-06-22T08:40:30;30.40;99.90
20590;DHT22;10453;50.810;12.540;2023-06-22T08:44:48;30.90;99.90
20590;DHT22;10453;50.810;12.540;2023-06-22T08:49:06;31.00;99.90
20590;DHT22;10453;50.810;12.540;2023-06-22T08:53:23;30.80;99.90
20590;DHT22;10453;50.810;12.540;2023-06-22T08:57:41;31.40;99.90
20590;DHT22;10453;50.810;12.540;2023-06-22T09:02:00;31.50;99.90
20590;DHT22;10453;50.810;12.540;2023-06-22T09:06:17;31.60;99.90
20590;DHT22;10453;50.810;12.540;2023-06-22T09:10:34;31.80;99.90
20590;DHT22;10453;50.810;12.540;2023-06-22T09:14:52;32.60;99.90
20590;DHT22;10453;50.810;12.540;2023-06-22T09:19:09;32.20;99.90
20590;DHT22;10453;50.810;12.540;2023-06-22T09:23:26;31.40;97.70
20590;DHT22;10453;50.810;12.540;2023-06-22T09:27:44;31.90;99.20
20590;DHT22;10453;50.810;12.540;2023-06-22T09:32:01;32.20;99.90
20590;DHT22;10453;50.810;12.540;2023-06-22T09:36:22;32.60;96.50
20590;DHT22;10453;50.810;12.540;2023-06-22T09:40:39;33.10;94.50
20590;DHT22;10453;50.810;12.540;2023-06-22T09:44:58;33.30;94.10
20590;DHT22;10453;50.810;12.540;2023-06-22T09:49:15;33.70;89.20
20590;DHT22;10453;50.810;12.540;2023-06-22T09:53:33;33.90;91.40
20590;DHT22;10453;50.810;12.540;2023-06-22T09:57:51;32.90;81.00
20590;DHT22;10453;50.810;12.540;2023-06-22T10:02:09;33.10;90.30
20590;DHT22;10453;50.810;12.540;2023-06-22T10:06:26;33.90;81.50
20590;DHT22;10453;50.810;12.540;2023-06-22T10:10:43;33.80;79.30
20590;DHT22;10453;50.810;12.540;2023-06-22T10:15:01;33.30;91.00
20590;DHT22;10453;50.810;12.540;2023-06-22T10:19:19;33.20;82.90
20590;DHT22;10453;50.810;12.540;2023-06-22T10:23:36;33.50;88.30
20590;DHT22;10453;50.810;12.540;2023-06-22T10:27:53;32.90;78.80
20590;DHT22;10453;50.810;12.540;2023-06-22T10:32:10;34.30;76.70
20590;DHT22;10453;50.810;12.540;2023-06-22T10:36:28;33.90;82.90
20590;DHT22;10453;50.810;12.540;2023-06-22T10:40:45;34.70;77.60
20590;DHT22;10453;50.810;12.540;2023-06-22T10:45:03;34.80;74.80
20590;DHT22;10453;50.810;12.540;2023-06-22T10:49:20;34.80;71.20
20590;DHT22;10453;50.810;12.540;2023-06-22T10:53:38;34.30;70.10
20590;DHT22;10453;50.810;12.540;2023-06-22T10:57:55;35.40;70.20
20590;DHT22;10453;50.810;12.540;2023-06-22T11:02:12;34.70;68.30
20590;DHT22;10453;50.810;12.540;2023-06-22T11:06:30;35.00;72.10
20590;DHT22;10453;50.810;12.540;2023-06-22T11:10:47;34.50;75.10
20590;DHT22;10453;50.810;12.540;2023-06-22T11:15:05;34.70;71.20
20590;DHT22;10453;50.810;12.540;2023-06-22T11:19:22;35.50;74.20
20590;DHT22;10453;50.810;12.540;2023-06-22T11:23:39;35.00;68.50
20590;DHT22;10453;50.810;12.540;2023-06-22T11:27:57;34.90;65.90
20590;DHT22;10453;50.810;12.540;2023-06-22T11:32:14;35.30;62.90
20590;DHT22;10453;50.810;12.540;2023-06-22T11:36:31;34.40;63.60
20590;DHT22;10453;50.810;12.540;2023-06-22T11:40:50;35.30;62.20
20590;DHT22;10453;50.810;12.540;2023-06-22T11:45:07;35.40;66.10
20590;DHT22;10453;50.810;12.540;2023-06-22T11:49:25;35.70;63.80
20590;DHT22;10453;50.810;12.540;2023-06-22T11:53:42;35.30;61.00
20590;DHT22;10453;50.810;12.540;2023-06-22T11:57:59;34.30;66.00
20590;DHT22;10453;50.810;12.540;2023-06-22T12:02:20;35.10;63.70
20590;DHT22;10453;50.810;12.540;2023-06-22T12:06:38;35.00;66.20
20590;DHT22;10453;50.810;12.540;2023-06-22T12:10:58;35.40;67.50
20590;DHT22;10453;50.810;12.540;2023-06-22T12:15:15;35.20;60.00
20590;DHT22;10453;50.810;12.540;2023-06-22T12:19:33;35.90;67.90
20590;DHT22;10453;50.810;12.540;2023-06-22T12:23:50;35.50;64.30
20590;DHT22;10453;50.810;12.540;2023-06-22T12:28:07;36.20;61.30
20590;DHT22;10453;50.810;12.540;2023-06-22T12:32:25;35.40;61.50
20590;DHT22;10453;50.810;12.540;2023-06-22T12:36:43;35.20;64.80
20590;DHT22;10453;50.810;12.540;2023-06-22T12:41:01;34.70;60.60
20590;DHT22;10453;50.810;12.540;2023-06-22T12:45:18;35.40;66.30
20590;DHT22;10453;50.810;12.540;2023-06-22T12:49:37;36.90;58.80
20590;DHT22;10453;50.810;12.540;2023-06-22T12:53:54;36.80;59.60
20590;DHT22;10453;50.810;12.540;2023-06-22T12:58:12;36.00;58.30
20590;DHT22;10453;50.810;12.540;2023-06-22T13:02:29;35.30;61.10
20590;DHT22;10453;50.810;12.540;2023-06-22T13:06:47;35.00;61.20
20590;DHT22;10453;50.810;12.540;2023-06-22T13:11:07;35.10;62.00
20590;DHT22;10453;50.810;12.540;2023-06-22T13:15:24;34.30;66.10
20590;DHT22;10453;50.810;12.540;2023-06-22T13:19:41;35.30;63.40
20590;DHT22;10453;50.810;12.540;2023-06-22T13:23:59;35.90;66.00
20590;DHT22;10453;50.810;12.540;2023-06-22T13:28:16;33.80;66.40
20590;DHT22;10453;50.810;12.540;2023-06-22T13:32:44;33.60;68.50
20590;DHT22;10453;50.810;12.540;2023-06-22T13:37:01;34.20;72.20
20590;DHT22;10453;50.810;12.540;2023-06-22T13:41:19;33.80;71.30
20590;DHT22;10453;50.810;12.540;2023-06-22T13:45:36;34.60;81.10
20590;DHT22;10453;50.810;12.540;2023-06-22T13:49:54;36.50;70.10
20590;DHT22;10453;50.810;12.540;2023-06-22T13:54:11;36.10;63.10
20590;DHT22;10453;50.810;12.540;2023-06-22T13:58:45;35.20;69.70
20590;DHT22;10453;50.810;12.540;2023-06-22T14:03:03;34.30;68.40
20590;DHT22;10453;50.810;12.540;2023-06-22T14:07:23;34.20;64.80
20590;DHT22;10453;50.810;12.540;2023-06-22T14:11:41;33.80;70.70
20590;DHT22;10453;50.810;12.540;2023-06-22T14:15:59;35.10;66.50
20590;DHT22;10453;50.810;12.540;2023-06-22T14:20:16;35.50;63.40
20590;DHT22;10453;50.810;12.540;2023-06-22T14:24:34;34.60;66.00
20590;DHT22;10453;50.810;12.540;2023-06-22T14:28:52;34.50;71.40
20590;DHT22;10453;50.810;12.540;2023-06-22T14:33:11;33.90;71.80
20590;DHT22;10453;50.810;12.540;2023-06-22T14:37:29;33.10;71.40
20590;DHT22;10453;50.810;12.540;2023-06-22T14:41:47;33.20;73.80
20590;DHT22;10453;50.810;12.540;2023-06-22T14:46:04;34.60;67.60
20590;DHT22;10453;50.810;12.540;2023-06-22T14:50:21;33.90;70.90
20590;DHT22;10453;50.810;12.540;2023-06-22T14:54:39;34.80;69.10
20590;DHT22;10453;50.810;12.540;2023-06-22T14:58:56;35.80;67.10
20590;DHT22;10453;50.810;12.540;2023-06-22T15:03:14;36.50;69.10
20590;DHT22;10453;50.810;12.540;2023-06-22T15:07:38;36.30;64.10
20590;DHT22;10453;50.810;12.540;2023-06-22T15:11:55;35.00;65.60
20590;DHT22;10453;50.810;12.540;2023-06-22T15:16:13;35.90;66.90
20590;DHT22;10453;50.810;12.540;2023-06-22T15:20:30;35.30;68.30
20590;DHT22;10453;50.810;12.540;2023-06-22T15:24:48;34.30;68.30
20590;DHT22;10453;50.810;12.540;2023-06-22T15:29:05;33.50;70.20
20590;DHT22;10453;50.810;12.540;2023-06-22T15:33:24;33.10;71.30
20590;DHT22;10453;50.810;12.540;2023-06-22T15:37:42;33.60;76.40
20590;DHT22;10453;50.810;12.540;2023-06-22T15:41:59;34.00;77.90
20590;DHT22;10453;50.810;12.540;2023-06-22T15:46:16;33.30;68.00
20590;DHT22;10453;50.810;12.540;2023-06-22T15:50:35;33.70;72.70
20590;DHT22;10453;50.810;12.540;2023-06-22T15:54:52;34.00;69.70
20590;DHT22;10453;50.810;12.540;2023-06-22T15:59:11;34.10;70.40
20590;DHT22;10453;50.810;12.540;2023-06-22T16:03:29;34.00;71.20
20590;DHT22;10453;50.810;12.540;2023-06-22T16:07:46;33.50;73.30
20590;DHT22;10453;50.810;12.540;2023-06-22T16:12:04;33.30;72.40
20590;DHT22;10453;50.810;12.540;2023-06-22T16:16:22;32.90;70.30
20590;DHT22;10453;50.810;12.540;2023-06-22T16:20:39;32.90;73.00
20590;DHT22;10453;50.810;12.540;2023-06-22T16:24:57;32.40;73.10
20590;DHT22;10453;50.810;12.540;2023-06-22T16:29:15;32.10;75.00
20590;DHT22;10453;50.810;12.540;2023-06-22T16:33:32;32.00;76.40
20590;DHT22;10453;50.810;12.540;2023-06-22T16:37:50;32.00;77.30
20590;DHT22;10453;50.810;12.540;2023-06-22T16:42:07;31.80;80.10
20590;DHT22;10453;50.810;12.540;2023-06-22T16:46:25;31.30;90.00
20590;DHT22;10453;50.810;12.540;2023-06-22T16:50:42;31.20;91.30
20590;DHT22;10453;50.810;12.540;2023-06-22T16:55:00;31.10;90.60
20590;DHT22;10453;50.810;12.540;2023-06-22T16:59:20;31.10;93.00
20590;DHT22;10453;50.810;12.540;2023-06-22T17:03:43;31.00;94.50
20590;DHT22;10453;50.810;12.540;2023-06-22T17:08:03;31.00;92.80
20590;DHT22;10453;50.810;12.540;2023-06-22T17:12:21;31.00;95.80
20590;DHT22;10453;50.810;12.540;2023-06-22T17:16:42;30.50;95.50
20590;DHT22;10453;50.810;12.540;2023-06-22T17:21:00;30.10;99.90
20590;DHT22;10453;50.810;12.540;2023-06-22T17:25:19;29.60;99.90
20590;DHT22;10453;50.810;12.540;2023-06-22T17:29:37;29.40;99.90
20590;DHT22;10453;50.810;12.540;2023-06-22T17:33:54;29.40;99.90
20590;DHT22;10453;50.810;12.540;2023-06-22T17:38:20;29.10;99.90
20590;DHT22;10453;50.810;12.540;2023-06-22T17:42:38;28.80;99.90
20590;DHT22;10453;50.810;12.540;2023-06-22T17:46:56;28.80;99.90
20590;DHT22;10453;50.810;12.540;2023-06-22T17:51:15;28.80;99.90
20590;DHT22;10453;50.810;12.540;2023-06-22T17:55:33;28.70;99.90
20590;DHT22;10453;50.810;12.540;2023-06-22T17:59:50;28.60;99.90
20590;DHT22;10453;50.810;12.540;2023-06-22T18:04:10;28.40;99.90
20590;DHT22;10453;50.810;12.540;2023-06-22T18:08:28;28.20;99.90
20590;DHT22;10453;50.810;12.540;2023-06-22T18:12:47;28.20;99.90
20590;DHT22;10453;50.810;12.540;2023-06-22T18:17:05;28.30;99.90
20590;DHT22;10453;50.810;12.540;2023-06-22T18:21:23;28.20;99.90
20590;DHT22;10453;50.810;12.540;2023-06-22T18:25:41;28.10;99.90
20590;DHT22;10453;50.810;12.540;2023-06-22T18:30:02;28.00;99.90
20590;DHT22;10453;50.810;12.540;2023-06-22T18:34:20;27.90;99.90
20590;DHT22;10453;50.810;12.540;2023-06-22T18:38:41;27.70;99.90
20590;DHT22;10453;50.810;12.540;2023-06-22T18:43:00;27.70;99.90
20590;DHT22;10453;50.810;12.540;2023-06-22T18:47:26;27.60;99.90
20590;DHT22;10453;50.810;12.540;2023-06-22T18:52:03;27.50;99.90
20590;DHT22;10453;50.810;12.540;2023-06-22T18:56:21;27.50;99.90
20590;DHT22;10453;50.810;12.540;2023-06-22T19:00:39;27.30;99.90
20590;DHT22;10453;50.810;12.540;2023-06-22T19:05:08;27.20;99.90
20590;DHT22;10453;50.810;12.540;2023-06-22T19:09:26;27.10;99.90
20590;DHT22;10453;50.810;12.540;2023-06-22T19:13:46;26.90;99.90
20590;DHT22;10453;50.810;12.540;2023-06-22T19:18:16;26.70;99.90
20590;DHT22;10453;50.810;12.540;2023-06-22T19:22:54;26.60;99.90
20590;DHT22;10453;50.810;12.540;2023-06-22T19:27:13;26.50;99.90
20590;DHT22;10453;50.810;12.540;2023-06-22T19:31:30;26.40;99.90
20590;DHT22;10453;50.810;12.540;2023-06-22T19:35:49;26.40;99.90
20590;DHT22;10453;50.810;12.540;2023-06-22T19:40:16;26.40;99.90
20590;DHT22;10453;50.810;12.540;2023-06-22T19:44:38;26.40;99.90
20590;DHT22;10453;50.810;12.540;2023-06-22T19:48:59;26.30;99.90
20590;DHT22;10453;50.810;12.540;2023-06-22T19:53:16;26.30;99.90
20590;DHT22;10453;50.810;12.540;2023-06-22T19:57:35;26.60;99.90
20590;DHT22;10453;50.810;12.540;2023-06-22T20:01:53;26.80;99.90
20590;DHT22;10453;50.810;12.540;2023-06-22T20:06:13;26.60;99.90
20590;DHT22;10453;50.810;12.540;2023-06-22T20:10:36;26.50;99.90
20590;DHT22;10453;50.810;12.540;2023-06-22T20:14:54;26.20;99.90
20590;DHT22;10453;50.810;12.540;2023-06-22T20:19:13;26.00;99.90
20590;DHT22;10453;50.810;12.540;2023-06-22T20:23:33;26.00;99.90
20590;DHT22;10453;50.810;12.540;2023-06-22T20:27:51;26.20;99.90
20590;DHT22;10453;50.810;12.540;2023-06-22T20:36:27;25.90;99.90
20590;DHT22;10453;50.810;12.540;2023-06-22T20:40:46;25.20;99.90
20590;DHT22;10453;50.810;12.540;2023-06-22T20:45:05;24.30;99.90
20590;DHT22;10453;50.810;12.540;2023-06-22T20:49:22;23.90;99.90
20590;DHT22;10453;50.810;12.540;2023-06-22T20:53:43;22.90;99.90
20590;DHT22;10453;50.810;12.540;2023-06-22T20:58:01;21.40;99.90
20590;DHT22;10453;50.810;12.540;2023-06-22T21:02:18;20.60;99.90
20590;DHT22;10453;50.810;12.540;2023-06-22T21:06:37;20.40;99.90
20590;DHT22;10453;50.810;12.540;2023-06-22T21:10:54;20.40;99.90
20590;DHT22;10453;50.810;12.540;2023-06-22T21:15:11;20.30;99.90
20590;DHT22;10453;50.810;12.540;2023-06-22T21:19:29;20.10;99.90
20590;DHT22;10453;50.810;12.540;2023-06-22T21:23:46;20.00;99.90
20590;DHT22;10453;50.810;12.540;2023-06-22T21:28:03;20.00;99.90
20590;DHT22;10453;50.810;12.540;2023-06-22T21:32:21;19.90;99.90
20590;DHT22;10453;50.810;12.540;2023-06-22T21:36:40;20.10;99.90
20590;DHT22;10453;50.810;12.540;2023-06-22T21:40:57;20.50;99.90
20590;DHT22;10453;50.810;12.540;2023-06-22T21:45:14;20.50;99.90
20590;DHT22;10453;50.810;12.540;2023-06-22T21:49:32;20.10;99.90
20590;DHT22;10453;50.810;12.540;2023-06-22T21:53:49;19.90;99.90
20590;DHT22;10453;50.810;12.540;2023-06-22T21:58:06;19.80;99.90
20590;DHT22;10453;50.810;12.540;2023-06-22T22:02:24;19.90;99.90
20590;DHT22;10453;50.810;12.540;2023-06-22T22:06:41;19.80;99.90
20590;DHT22;10453;50.810;12.540;2023-06-22T22:10:59;19.70;99.90
20590;DHT22;10453;50.810;12.540;2023-06-22T22:15:16;19.80;99.90
20590;DHT22;10453;50.810;12.540;2023-06-22T22:19:34;19.70;99.90
20590;DHT22;10453;50.810;12.540;2023-06-22T22:23:52;19.80;99.90
20590;DHT22;10453;50.810;12.540;2023-06-22T22:28:09;19.70;99.90
20590;DHT22;10453;50.810;12.540;2023-06-22T22:32:26;19.70;99.90
20590;DHT22;10453;50.810;12.540;2023-06-22T22:36:44;19.70;99.90
20590;DHT22;10453;50.810;12.540;2023-06-22T22:41:02;19.70;99.90
20590;DHT22;10453;50.810;12.540;2023-06-22T22:45:19;19.60;99.90
20590;DHT22;10453;50.810;12.540;2023-06-22T22:49:37;19.50;99.90
20590;DHT22;10453;50.810;12.540;2023-06-22T22:53:54;19.60;99.90
20590;DHT22;10453;50.810;12.540;2023-06-22T22:58:12;19.60;99.90
20590;DHT22;10453;50.810;12.540;2023-06-22T23:02:29;19.50;99.90
20590;DHT22;10453;50.810;12.540;2023-06-22T23:06:47;19.50;99.90
20590;DHT22;10453;50.810;12.540;2023-06-22T23:11:04;19.50;99.90
20590;DHT22;10453;50.810;12.540;2023-06-22T23:15:22;19.50;99.90
20590;DHT22;10453;50.810;12.540;2023-06-22T23:19:40;19.50;99.90
20590;DHT22;10453;50.810;12.540;2023-06-22T23:23:58;19.50;99.90
20590;DHT22;10453;50.810;12.540;2023-06-22T23:28:17;19.50;99.90
20590;DHT22;10453;50.810;12.540;2023-06-22T23:32:53;19.50;99.90
20590;DHT22;10453;50.810;12.540;2023-06-22T23:37:13;19.60;99.90
20590;DHT22;10453;50.810;12.540;2023-06-22T23:41:32;19.50;99.90
20590;DHT22;10453;50.810;12.540;2023-06-22T23:45:50;19.60;99.90
20590;DHT22;10453;50.810;12.540;2023-06-22T23:50:07;19.70;99.90
20590;DHT22;10453;50.810;12.540;2023-06-22T23:54:25;19.60;99.90
20590;DHT22;10453;50.810;12.540;2023-06-22T23:58:42;19.70;99.90
